createdAt,value
2022-12-25T00:01:27.461Z,7.95
2022-12-25T00:06:30.182Z,5.71
2022-12-25T00:11:32.862Z,4.37
2022-12-25T00:16:35.659Z,3.51
2022-12-25T00:21:38.702Z,4.11
2022-12-25T00:26:41.370Z,7.66
2022-12-25T00:31:44.235Z,8.00
2022-12-25T00:36:50.894Z,5.64
2022-12-25T00:42:12.360Z,4.32
2022-12-25T00:47:16.194Z,3.54
2022-12-25T00:52:18.898Z,2.97
2022-12-25T00:57:21.596Z,3.88
2022-12-25T01:02:24.492Z,7.57
2022-12-25T01:07:27.602Z,8.10
2022-12-25T01:12:33.524Z,5.82
2022-12-25T01:17:36.763Z,4.45
2022-12-25T01:22:39.759Z,3.66
2022-12-25T01:27:42.779Z,3.11
2022-12-25T01:32:45.571Z,4.04
2022-12-25T01:37:48.227Z,7.67
2022-12-25T01:42:51.066Z,8.31
2022-12-25T01:47:53.867Z,6.05
2022-12-25T01:52:57.662Z,4.64
2022-12-25T01:58:00.740Z,3.74
2022-12-25T02:03:04.162Z,4.29
2022-12-25T02:08:12.730Z,7.71
2022-12-25T02:13:18.590Z,8.11
2022-12-25T02:18:32.477Z,5.91
2022-12-25T02:24:10.007Z,4.62
2022-12-25T02:29:12.705Z,3.81
2022-12-25T02:34:41.633Z,4.59
2022-12-25T02:39:59.557Z,8.33
2022-12-25T02:45:21.200Z,7.77
2022-12-25T02:50:44.303Z,5.62
2022-12-25T02:56:08.696Z,4.39
2022-12-25T03:01:35.500Z,3.54
2022-12-25T03:06:43.755Z,4.42
2022-12-25T03:11:49.841Z,7.79
2022-12-25T03:16:56.779Z,8.03
2022-12-25T03:22:18.084Z,5.77
2022-12-25T03:27:20.757Z,4.36
2022-12-25T03:32:48.576Z,3.53
2022-12-25T03:38:23.592Z,4.53
2022-12-25T03:44:12.502Z,7.96
2022-12-25T03:49:48.925Z,7.92
2022-12-25T03:55:15.129Z,5.56
2022-12-25T04:00:36.923Z,4.23
2022-12-25T04:05:58.168Z,3.38
2022-12-25T04:11:19.388Z,4.26
2022-12-25T04:16:40.618Z,7.71
2022-12-25T04:22:01.972Z,8.03
2022-12-25T04:27:23.499Z,5.66
2022-12-25T04:32:45.040Z,4.43
2022-12-25T04:37:47.909Z,5.36
2022-12-25T04:42:52.074Z,8.89
2022-12-25T04:47:54.728Z,8.26
2022-12-25T04:52:57.416Z,6.12
2022-12-25T04:58:00.197Z,4.91
2022-12-25T05:03:03.053Z,4.12
2022-12-25T05:08:06.498Z,4.84
2022-12-25T05:13:09.211Z,8.01
2022-12-25T05:18:11.909Z,8.48
2022-12-25T05:23:15.122Z,6.36
2022-12-25T05:28:18.623Z,5.02
2022-12-25T05:33:21.377Z,4.11
2022-12-25T05:38:24.211Z,4.69
2022-12-25T05:43:28.432Z,7.80
2022-12-25T05:48:31.227Z,8.47
2022-12-25T05:53:34.563Z,6.25
2022-12-25T05:58:39.211Z,4.96
2022-12-25T06:03:42.279Z,4.21
2022-12-25T06:08:45.643Z,4.93
2022-12-25T06:13:52.680Z,8.11
2022-12-25T06:18:55.346Z,8.34
2022-12-25T06:24:00.093Z,6.12
2022-12-25T06:29:03.218Z,4.92
2022-12-25T06:34:05.996Z,4.15
2022-12-25T06:39:09.709Z,4.63
2022-12-25T06:44:12.541Z,7.66
2022-12-25T06:49:15.366Z,8.31
2022-12-25T06:54:18.189Z,6.15
2022-12-25T06:59:22.187Z,4.75
2022-12-25T07:04:39.083Z,3.87
2022-12-25T07:09:42.743Z,4.69
2022-12-25T07:14:48.902Z,7.96
2022-12-25T07:19:51.895Z,8.49
2022-12-25T07:24:54.717Z,6.29
2022-12-25T07:29:57.401Z,4.92
2022-12-25T07:35:00.303Z,4.05
2022-12-25T07:40:03.713Z,4.71
2022-12-25T07:45:07.107Z,7.97
2022-12-25T07:50:10.306Z,8.70
2022-12-25T07:55:13.629Z,6.53
2022-12-25T08:00:17.369Z,5.23
2022-12-25T08:05:20.074Z,4.46
2022-12-25T08:10:22.773Z,5.20
2022-12-25T08:15:25.479Z,8.55
2022-12-25T08:20:28.285Z,9.06
2022-12-25T08:25:31.471Z,6.85
2022-12-25T08:30:34.151Z,5.56
2022-12-25T08:35:37.104Z,4.75
2022-12-25T08:40:39.805Z,5.45
2022-12-25T08:45:42.519Z,8.74
2022-12-25T08:50:47.234Z,9.40
2022-12-25T08:55:50.228Z,7.12
2022-12-25T09:00:53.455Z,5.79
2022-12-25T09:05:56.279Z,4.98
2022-12-25T09:11:07.819Z,5.58
2022-12-25T09:16:13.719Z,9.00
2022-12-25T09:21:17.642Z,9.66
2022-12-25T09:26:20.669Z,7.48
2022-12-25T09:31:23.938Z,6.15
2022-12-25T09:36:27.136Z,6.55
2022-12-25T09:42:20.783Z,9.65
2022-12-25T09:47:27.979Z,9.81
2022-12-25T09:52:37.375Z,7.65
2022-12-25T09:57:40.245Z,6.38
2022-12-25T10:02:55.411Z,6.61
2022-12-25T10:08:23.703Z,9.53
2022-12-25T10:13:50.106Z,9.84
2022-12-25T10:19:21.981Z,7.35
2022-12-25T10:24:39.012Z,5.92
2022-12-25T10:29:43.964Z,6.56
2022-12-25T10:34:46.744Z,9.54
2022-12-25T10:39:49.493Z,10.63
2022-12-25T10:44:59.744Z,8.44
2022-12-25T10:50:19.122Z,6.67
2022-12-25T10:55:28.162Z,5.59
2022-12-25T11:00:33.717Z,4.90
2022-12-25T11:05:36.855Z,5.72
2022-12-25T11:10:43.972Z,8.85
2022-12-25T11:16:01.559Z,10.10
2022-12-25T11:21:15.585Z,8.08
2022-12-25T11:26:18.755Z,6.46
2022-12-25T11:31:32.175Z,5.79
2022-12-25T11:36:47.316Z,8.25
2022-12-25T11:41:56.354Z,9.99
2022-12-25T11:47:12.894Z,8.36
2022-12-25T11:52:18.158Z,6.42
2022-12-25T11:57:25.252Z,5.64
2022-12-25T12:02:37.071Z,7.80
2022-12-25T12:07:57.696Z,9.94
2022-12-25T12:13:23.834Z,8.70
2022-12-25T12:18:26.564Z,6.65
2022-12-25T12:23:32.249Z,5.57
2022-12-25T12:28:45.259Z,5.89
2022-12-25T12:33:53.381Z,8.85
2022-12-25T12:38:58.437Z,9.70
2022-12-25T12:44:05.153Z,7.56
2022-12-25T12:49:28.495Z,6.12
2022-12-25T12:54:31.257Z,6.47
2022-12-25T12:59:44.373Z,9.26
2022-12-25T13:05:12.627Z,9.55
2022-12-25T13:10:37.840Z,7.33
2022-12-25T13:15:41.093Z,6.10
2022-12-25T13:21:04.139Z,6.66
2022-12-25T13:26:16.977Z,9.65
2022-12-25T13:31:25.365Z,9.25
2022-12-25T13:36:30.865Z,7.15
2022-12-25T13:42:03.100Z,5.96
2022-12-25T13:47:19.382Z,6.65
2022-12-25T13:52:34.191Z,9.56
2022-12-25T13:57:43.933Z,9.85
2022-12-25T14:02:48.030Z,7.74
2022-12-25T14:07:56.114Z,6.44
2022-12-25T14:13:03.629Z,5.58
2022-12-25T14:18:07.395Z,6.13
2022-12-25T14:23:16.250Z,9.09
2022-12-25T14:28:26.866Z,9.67
2022-12-25T14:33:36.823Z,7.58
2022-12-25T14:38:42.527Z,6.31
2022-12-25T14:43:55.581Z,5.49
2022-12-25T14:49:09.842Z,6.13
2022-12-25T14:54:23.144Z,9.16
2022-12-25T14:59:27.152Z,9.55
2022-12-25T15:04:30.379Z,7.33
2022-12-25T15:09:33.531Z,6.00
2022-12-25T15:14:38.577Z,5.22
2022-12-25T15:19:41.296Z,5.86
2022-12-25T15:24:44.069Z,8.76
2022-12-25T15:35:19.438Z,8.52
2022-12-25T15:40:22.171Z,6.56
2022-12-25T15:45:28.063Z,6.70
2022-12-25T15:50:32.792Z,9.40
2022-12-25T15:55:36.712Z,9.63
2022-12-25T16:00:39.468Z,7.19
2022-12-25T16:05:42.221Z,7.14
2022-12-25T16:10:45.127Z,9.71
2022-12-25T16:15:47.857Z,9.72
2022-12-25T16:20:52.263Z,7.35
2022-12-25T16:25:54.961Z,5.87
2022-12-25T16:30:57.765Z,6.27
2022-12-25T16:36:00.507Z,9.29
2022-12-25T16:41:03.389Z,9.76
2022-12-25T16:46:13.992Z,7.49
2022-12-25T16:51:19.759Z,6.02
2022-12-25T16:56:25.704Z,6.38
2022-12-25T17:01:29.026Z,9.49
2022-12-25T17:06:32.124Z,9.84
2022-12-25T17:11:34.912Z,7.40
2022-12-25T17:16:38.224Z,7.20
2022-12-25T17:21:40.993Z,9.80
2022-12-25T17:26:44.132Z,9.86
2022-12-25T17:31:46.925Z,7.37
2022-12-25T17:36:49.694Z,7.26
2022-12-25T17:41:52.545Z,10.03
2022-12-25T17:46:55.407Z,10.07
2022-12-25T17:51:58.247Z,7.54
2022-12-25T17:57:01.359Z,7.20
2022-12-25T18:02:04.098Z,9.85
2022-12-25T18:07:06.871Z,10.04
2022-12-25T18:12:09.559Z,7.60
2022-12-25T18:17:12.259Z,6.95
2022-12-25T18:22:14.972Z,9.76
2022-12-25T18:27:17.752Z,10.02
2022-12-25T18:32:26.315Z,7.48
2022-12-25T18:37:34.441Z,7.43
2022-12-25T18:42:43.470Z,10.42
2022-12-25T18:47:47.025Z,9.93
2022-12-25T18:52:51.678Z,7.51
2022-12-25T18:57:55.255Z,6.11
2022-12-25T19:02:59.301Z,6.63
2022-12-25T19:08:02.717Z,9.84
2022-12-25T19:13:06.215Z,10.26
2022-12-25T19:18:09.507Z,7.75
2022-12-25T19:23:12.209Z,6.29
2022-12-25T19:28:15.135Z,8.32
2022-12-25T19:33:18.206Z,10.56
2022-12-25T19:38:20.970Z,10.37
2022-12-25T19:43:23.752Z,7.72
2022-12-25T19:48:26.544Z,7.58
2022-12-25T19:53:30.464Z,10.33
2022-12-25T19:58:33.169Z,10.48
2022-12-25T20:03:43.672Z,7.90
2022-12-25T20:08:52.555Z,7.79
2022-12-25T20:13:56.321Z,10.56
2022-12-25T20:18:59.336Z,10.46
2022-12-25T20:24:02.050Z,7.82
2022-12-25T20:29:05.568Z,8.77
2022-12-25T20:34:11.255Z,10.92
2022-12-25T20:39:14.125Z,10.49
2022-12-25T20:44:17.123Z,7.91
2022-12-25T20:49:20.246Z,7.73
2022-12-25T20:54:22.932Z,10.34
2022-12-25T20:59:25.639Z,10.52
2022-12-25T21:04:28.332Z,8.02
2022-12-25T21:09:31.729Z,7.88
2022-12-25T21:14:34.853Z,10.50
2022-12-25T21:19:37.527Z,10.45
2022-12-25T21:24:40.253Z,7.94
2022-12-25T21:29:43.056Z,6.39
2022-12-25T21:34:45.768Z,7.28
2022-12-25T21:39:51.533Z,10.20
2022-12-25T21:44:54.239Z,11.18
2022-12-25T21:50:15.455Z,9.05
2022-12-25T21:55:18.131Z,7.08
2022-12-25T22:00:21.037Z,8.71
2022-12-25T22:05:42.368Z,10.90
2022-12-25T22:10:45.098Z,10.50
2022-12-25T22:16:06.784Z,8.02
2022-12-25T22:21:18.743Z,8.09
2022-12-25T22:26:21.570Z,11.15
2022-12-25T22:31:24.527Z,10.27
2022-12-25T22:36:27.493Z,7.91
2022-12-25T22:41:33.665Z,9.22
2022-12-25T22:46:37.133Z,11.46
2022-12-25T22:51:39.958Z,9.82
2022-12-25T22:56:45.108Z,7.97
2022-12-25T23:01:49.198Z,10.66
2022-12-25T23:06:52.022Z,10.96
2022-12-25T23:11:59.478Z,8.36
2022-12-25T23:17:02.119Z,8.40
2022-12-25T23:22:23.498Z,10.86
2022-12-25T23:27:26.660Z,9.59
2022-12-25T23:32:29.377Z,7.48
2022-12-25T23:37:32.108Z,8.77
2022-12-25T23:42:34.908Z,11.10
2022-12-25T23:47:38.169Z,10.66
2022-12-25T23:52:40.900Z,8.37
2022-12-25T23:57:43.627Z,10.02
